KBBG

Branson Airport

Branson, Missouri, USA
METAR KBBG 161845Z 15006KT 10SM OVC025 06/03 A3015
Observed Flight Rules
Jan-16 @ 18:45 UTC (6 minutes ago) Marginal Visual Flight Rules
Wind Visibility Clouds
150° at 6 knots 10 miles
  • Overcast at 2,500' AGL
Temperatures Readings
Current 6°C / 43°F
Dewpoint 3°C / 37°F
Humidity 81%
Altimeter 30.15" Hg
Pressure 1021.02 hPa
Elevation 397
METAR KBBG 161845Z 15006KT 10SM OVC025 06/03 A3015
Observed Flight Rules
Jan-16 @ 18:45 UTC
(6 minutes ago)
MVFR
Wind Visibility
150° at 6 knots 10 miles
Clouds
  • Overcast at 2,500' AGL
Temperature Dewpoint
6°C / 43°F 3°C / 37°F
Humidity Altimeter Pressure
81% 30.15" Hg 1021.02 hPa